Time;durP1;ratioP1;P1;durP2;ratioP2;P2;SDS_P1;SDS_P2;PMS_P1;PMS_P2;Temp;Humidity;BMP_temperature;BMP_pressure;BME280_temperature;BME280_humidity;BME280_pressure;Samples;Min_cycle;Max_cycle;Signal;HPM_P1;HPM_P2
2022/05/15 00:01:47;;;;;;;11.23;2.90;;;15.40;68.20;;;;;;5049212;28;20094;-59
2022/05/15 00:04:13;;;;;;;10.55;3.10;;;15.40;68.40;;;;;;5051341;28;20026;-59
2022/05/15 00:06:38;;;;;;;13.13;3.47;;;15.40;68.60;;;;;;5051457;28;20029;-59
2022/05/15 00:09:04;;;;;;;9.43;3.35;;;15.30;69.00;;;;;;5051421;28;20079;-59
2022/05/15 00:11:29;;;;;;;6.85;2.83;;;15.30;69.00;;;;;;5052418;28;20108;-59
2022/05/15 00:13:57;;;;;;;7.70;2.50;;;15.30;69.10;;;;;;5052875;28;20500;-59
2022/05/15 00:16:23;;;;;;;8.40;2.67;;;15.30;69.40;;;;;;5054635;28;20542;-59
2022/05/15 00:18:50;;;;;;;10.77;2.90;;;15.20;69.40;;;;;;5059270;28;20381;-59
2022/05/15 00:21:16;;;;;;;11.25;4.72;;;15.20;69.50;;;;;;5061119;28;20032;-59
2022/05/15 00:23:42;;;;;;;13.18;2.97;;;15.20;70.00;;;;;;5063004;28;20045;-59
2022/05/15 00:26:08;;;;;;;11.27;3.13;;;15.20;70.40;;;;;;5055207;28;20078;-59
2022/05/15 00:28:34;;;;;;;10.55;2.42;;;15.10;70.60;;;;;;5060690;28;20025;-59
2022/05/15 00:30:59;;;;;;;8.15;2.53;;;15.10;70.70;;;;;;5056955;28;20032;-59
2022/05/15 00:33:25;;;;;;;8.63;2.55;;;15.10;70.70;;;;;;5048539;28;20037;-59
2022/05/15 00:35:52;;;;;;;10.02;2.85;;;15.10;70.90;;;;;;5058790;28;20033;-59
2022/05/15 00:38:18;;;;;;;9.98;3.22;;;15.00;71.00;;;;;;5058254;28;20032;-59
2022/05/15 00:40:46;;;;;;;11.10;3.53;;;15.00;71.20;;;;;;5055751;28;20033;-59
2022/05/15 00:43:33;;;;;;;14.73;2.78;;;15.00;71.20;;;;;;5055347;28;20458;-58
2022/05/15 00:45:58;;;;;;;13.82;3.30;;;15.00;71.50;;;;;;5062732;28;20111;-59
2022/05/15 00:48:24;;;;;;;11.48;2.72;;;14.90;71.60;;;;;;5064992;28;20199;-59
2022/05/15 00:50:50;;;;;;;8.82;2.70;;;15.00;71.80;;;;;;5063005;28;20432;-59
2022/05/15 00:53:15;;;;;;;10.57;2.92;;;14.90;71.70;;;;;;5058498;28;20029;-59
2022/05/15 00:55:46;;;;;;;13.32;3.53;;;14.90;71.90;;;;;;5064605;28;20487;-59
2022/05/15 00:58:20;;;;;;;17.60;4.20;;;14.90;72.00;;;;;;5060273;28;20529;-59
2022/05/15 01:00:46;;;;;;;13.50;4.00;;;14.80;72.30;;;;;;5063413;28;20028;-59
2022/05/15 01:03:15;;;;;;;12.25;3.38;;;14.80;72.60;;;;;;5063570;28;20024;-59
2022/05/15 01:05:47;;;;;;;12.85;3.22;;;14.70;72.60;;;;;;5060903;28;20027;-59
2022/05/15 01:08:13;;;;;;;18.10;4.40;;;14.70;72.90;;;;;;5060542;28;20045;-59
2022/05/15 01:10:42;;;;;;;14.85;4.13;;;14.60;73.50;;;;;;5059045;28;20086;-59
2022/05/15 01:13:10;;;;;;;14.32;3.72;;;14.60;73.70;;;;;;5054805;28;20090;-59
2022/05/15 01:15:37;;;;;;;11.43;4.50;;;14.50;73.60;;;;;;5065302;28;20123;-59
2022/05/15 01:18:04;;;;;;;13.65;3.28;;;14.50;73.70;;;;;;5064143;28;20125;-59
2022/05/15 01:20:30;;;;;;;9.65;3.25;;;14.50;73.70;;;;;;5066675;28;20024;-59
2022/05/15 01:22:56;;;;;;;13.75;4.55;;;14.50;73.70;;;;;;5060457;28;20074;-59
2022/05/15 01:25:26;;;;;;;15.40;4.10;;;14.50;73.90;;;;;;5066543;28;20033;-59
2022/05/15 01:27:54;;;;;;;;;;;14.50;74.00;;;;;;5061565;28;20025;-59
2022/05/15 01:30:21;;;;;;;11.82;3.45;;;14.40;73.90;;;;;;5057611;28;20372;-59
2022/05/15 01:32:46;;;;;;;16.60;4.45;;;14.40;74.20;;;;;;5059972;28;20476;-59
2022/05/15 01:35:12;;;;;;;14.45;3.95;;;14.30;74.50;;;;;;5062576;28;20025;-59
2022/05/15 01:37:38;;;;;;;11.63;4.32;;;14.30;74.60;;;;;;5060557;28;20037;-59
2022/05/15 01:40:05;;;;;;;12.27;3.40;;;14.30;74.70;;;;;;5054438;28;20021;-59
2022/05/15 01:42:31;;;;;;;11.23;3.85;;;14.30;74.90;;;;;;5056021;28;20091;-59
2022/05/15 01:44:57;;;;;;;11.88;3.90;;;14.20;75.00;;;;;;5062772;28;20025;-59
2022/05/15 01:47:23;;;;;;;8.95;3.35;;;14.20;75.30;;;;;;5059839;28;20029;-59
2022/05/15 01:49:48;;;;;;;10.27;3.10;;;14.20;75.40;;;;;;5065697;28;20044;-59
2022/05/15 01:52:14;;;;;;;11.77;3.38;;;14.20;75.70;;;;;;5063251;28;20045;-59
2022/05/15 01:54:39;;;;;;;9.52;4.20;;;14.10;76.10;;;;;;5063384;28;20482;-59
2022/05/15 01:57:05;;;;;;;11.35;2.92;;;14.10;76.20;;;;;;5060774;28;20095;-59
2022/05/15 01:59:31;;;;;;;8.95;2.47;;;14.00;76.10;;;;;;5055105;28;20037;-59
2022/05/15 02:01:56;;;;;;;8.82;3.10;;;14.00;76.10;;;;;;5059831;28;20133;-59
2022/05/15 02:04:22;;;;;;;8.63;2.58;;;14.00;76.20;;;;;;5063957;28;20035;-59
2022/05/15 02:06:47;;;;;;;9.75;3.13;;;14.00;76.20;;;;;;5061379;28;20051;-59
2022/05/15 02:09:13;;;;;;;9.65;3.03;;;14.00;76.30;;;;;;5062944;28;20017;-59
2022/05/15 02:11:39;;;;;;;12.00;3.20;;;14.00;76.40;;;;;;5060227;28;20064;-59
2022/05/15 02:14:05;;;;;;;11.57;3.15;;;13.90;76.50;;;;;;5055406;28;20036;-59
2022/05/15 02:16:31;;;;;;;10.88;3.58;;;13.90;76.60;;;;;;5063404;28;20032;-59
2022/05/15 02:18:57;;;;;;;8.98;2.97;;;13.90;76.70;;;;;;5059910;28;20396;-59
2022/05/15 02:21:23;;;;;;;9.75;2.92;;;13.90;76.90;;;;;;5065061;28;20416;-59
2022/05/15 02:23:48;;;;;;;17.33;4.68;;;13.90;77.10;;;;;;5059794;28;20033;-59
2022/05/15 02:26:14;;;;;;;11.68;3.08;;;13.80;77.60;;;;;;5059243;28;20029;-59
2022/05/15 02:28:40;;;;;;;11.27;3.63;;;13.80;77.60;;;;;;5061292;28;20031;-59
2022/05/15 02:31:06;;;;;;;13.02;3.30;;;13.70;77.80;;;;;;5055320;28;20025;-58
2022/05/15 02:33:33;;;;;;;8.35;3.28;;;13.70;77.90;;;;;;5055216;28;20060;-59
2022/05/15 02:35:59;;;;;;;11.45;4.60;;;13.70;77.90;;;;;;5048258;28;20025;-58
2022/05/15 02:38:25;;;;;;;12.45;4.00;;;13.60;78.20;;;;;;5058114;28;20100;-59
2022/05/15 02:40:51;;;;;;;12.18;3.80;;;13.60;78.20;;;;;;5057588;28;20028;-59
2022/05/15 02:43:16;;;;;;;15.75;4.32;;;13.60;78.30;;;;;;5057848;28;20020;-59
2022/05/15 02:45:42;;;;;;;14.52;4.32;;;13.60;78.80;;;;;;5057589;28;20108;-59
2022/05/15 02:51:03;;;;;;;11.10;3.90;;;13.50;79.10;;;;;;5061650;28;20078;-59
2022/05/15 02:51:05;;;;;;;13.55;3.42;;;13.50;79.10;;;;;;5065000;28;20052;-59
2022/05/15 02:53:43;;;;;;;10.57;2.63;;;13.40;79.30;;;;;;5061815;28;20075;-58
2022/05/15 02:56:20;;;;;;;8.82;3.10;;;13.40;79.20;;;;;;5063651;28;20055;-59
2022/05/15 02:58:46;;;;;;;8.48;2.78;;;13.40;79.30;;;;;;5054074;28;20095;-58
2022/05/15 03:01:13;;;;;;;8.40;2.97;;;13.40;79.40;;;;;;5060280;28;20262;-59
2022/05/15 03:03:38;;;;;;;9.00;3.13;;;13.40;79.40;;;;;;5056614;28;20021;-59
2022/05/15 03:06:05;;;;;;;8.30;2.80;;;13.30;79.30;;;;;;5064838;28;20031;-58
2022/05/15 03:08:37;;;;;;;12.30;3.63;;;13.30;79.40;;;;;;5061621;28;20423;-59
2022/05/15 03:11:03;;;;;;;11.80;2.85;;;13.30;79.40;;;;;;5061530;28;20154;-59
2022/05/15 03:13:28;;;;;;;9.27;2.58;;;13.30;79.60;;;;;;5052456;28;20465;-58
2022/05/15 03:15:54;;;;;;;9.73;3.08;;;13.20;79.50;;;;;;5059888;28;20553;-59
2022/05/15 03:18:20;;;;;;;11.48;3.10;;;13.20;79.60;;;;;;5061328;28;20036;-58
2022/05/15 03:20:45;;;;;;;11.38;3.28;;;13.20;79.80;;;;;;5062664;28;20057;-59
2022/05/15 03:23:11;;;;;;;10.80;3.13;;;13.10;79.90;;;;;;5061488;28;20056;-59
2022/05/15 03:25:37;;;;;;;12.30;3.90;;;13.10;80.10;;;;;;5059764;28;20021;-59
2022/05/15 03:28:09;;;;;;;10.35;3.17;;;13.10;80.30;;;;;;5061864;28;20086;-59
2022/05/15 03:30:38;;;;;;;14.77;3.78;;;13.00;80.40;;;;;;5057869;28;20131;-59
2022/05/15 03:33:03;;;;;;;18.88;4.03;;;13.00;80.50;;;;;;5052512;28;20043;-59
2022/05/15 03:35:29;;;;;;;9.25;3.17;;;13.00;80.70;;;;;;5059925;28;20028;-59
2022/05/15 03:37:54;;;;;;;10.00;2.92;;;13.00;80.70;;;;;;5053471;28;20127;-59
2022/05/15 03:40:20;;;;;;;11.07;3.47;;;12.90;80.70;;;;;;5051065;28;20032;-59
2022/05/15 03:42:45;;;;;;;9.85;2.67;;;12.90;80.80;;;;;;5060297;28;20384;-59
2022/05/15 03:45:11;;;;;;;9.35;2.78;;;12.90;80.80;;;;;;5052181;28;20056;-59
2022/05/15 03:47:44;;;;;;;12.65;3.63;;;12.90;80.90;;;;;;5054624;28;20484;-58
2022/05/15 03:50:10;;;;;;;12.95;3.35;;;12.90;81.00;;;;;;5060542;28;20397;-59
2022/05/15 03:52:35;;;;;;;10.40;3.35;;;12.90;81.10;;;;;;5062654;28;20048;-59
2022/05/15 03:55:02;;;;;;;7.38;2.90;;;12.90;81.20;;;;;;5060436;28;20035;-59
2022/05/15 03:57:28;;;;;;;11.88;3.42;;;12.80;81.20;;;;;;5059520;28;20029;-59
2022/05/15 03:59:53;;;;;;;15.32;3.00;;;12.80;81.40;;;;;;5055919;28;20410;-59
2022/05/15 04:02:19;;;;;;;13.68;3.42;;;12.80;81.60;;;;;;5057702;28;20067;-59
2022/05/15 04:04:44;;;;;;;14.57;4.45;;;12.70;81.70;;;;;;5062019;28;20024;-59
2022/05/15 04:07:10;;;;;;;9.40;3.58;;;12.70;81.80;;;;;;5063758;28;20123;-59
2022/05/15 04:09:38;;;;;;;7.45;2.42;;;12.70;81.90;;;;;;5059477;28;20037;-58
2022/05/15 04:12:04;;;;;;;15.40;3.22;;;12.60;81.90;;;;;;5062108;28;20055;-59
2022/05/15 04:14:30;;;;;;;7.05;2.63;;;12.70;82.00;;;;;;5057450;28;20086;-59
2022/05/15 04:16:55;;;;;;;8.98;2.47;;;12.60;82.00;;;;;;5064117;28;20261;-59
2022/05/15 04:19:22;;;;;;;9.98;2.88;;;12.60;82.00;;;;;;5064400;28;20578;-59
2022/05/15 04:21:47;;;;;;;14.02;2.80;;;12.60;82.00;;;;;;5067663;28;20029;-59
2022/05/15 04:24:15;;;;;;;10.95;4.32;;;12.60;82.00;;;;;;5064690;28;20021;-59
2022/05/15 04:26:41;;;;;;;14.18;3.25;;;12.70;82.10;;;;;;5067603;28;20020;-59
2022/05/15 04:29:08;;;;;;;12.02;2.88;;;12.70;82.20;;;;;;5059713;28;20029;-59
2022/05/15 04:31:34;;;;;;;14.23;2.88;;;12.70;82.20;;;;;;5055533;28;20536;-59
2022/05/15 04:34:01;;;;;;;14.95;4.30;;;12.60;82.20;;;;;;5057673;28;20037;-59
2022/05/15 04:36:26;;;;;;;8.48;3.60;;;12.70;82.50;;;;;;5065631;28;20495;-59
2022/05/15 04:38:52;;;;;;;11.10;4.03;;;12.70;82.80;;;;;;5067514;28;20029;-58
2022/05/15 04:41:17;;;;;;;10.68;3.83;;;12.70;83.10;;;;;;5055988;28;20445;-59
2022/05/15 04:43:43;;;;;;;13.55;4.20;;;12.60;83.30;;;;;;5064197;28;20021;-59
2022/05/15 04:46:09;;;;;;;17.73;4.38;;;12.60;84.30;;;;;;5061766;28;20479;-59
2022/05/15 04:48:35;;;;;;;15.15;4.22;;;12.60;83.80;;;;;;5064926;28;20016;-59
2022/05/15 04:51:01;;;;;;;14.23;4.05;;;12.70;84.10;;;;;;5062513;28;20750;-59
2022/05/15 04:53:30;;;;;;;11.48;4.05;;;12.60;84.20;;;;;;5066808;28;20039;-58
2022/05/15 04:55:56;;;;;;;12.82;4.05;;;12.70;84.40;;;;;;5061313;28;20404;-59
2022/05/15 04:58:22;;;;;;;14.80;4.07;;;12.60;84.70;;;;;;5059662;28;20025;-59
2022/05/15 05:00:48;;;;;;;13.18;5.00;;;12.70;85.10;;;;;;5055931;28;20040;-58
2022/05/15 05:03:14;;;;;;;13.30;4.10;;;12.70;85.30;;;;;;5079228;28;20032;-59
2022/05/15 05:05:39;;;;;;;11.35;3.88;;;12.70;85.40;;;;;;5059763;28;20396;-59
2022/05/15 05:08:08;;;;;;;15.70;4.70;;;12.70;85.50;;;;;;5055209;28;20028;-59
2022/05/15 05:10:33;;;;;;;15.00;4.07;;;12.80;86.00;;;;;;5055315;28;20029;-59
2022/05/15 05:12:59;;;;;;;14.90;4.88;;;12.80;86.30;;;;;;5054831;28;20491;-59
2022/05/15 05:15:24;;;;;;;17.70;5.00;;;12.80;86.50;;;;;;5055140;28;20024;-59
2022/05/15 05:17:50;;;;;;;15.05;4.90;;;12.80;86.70;;;;;;5054627;28;20465;-59
2022/05/15 05:20:16;;;;;;;13.70;4.93;;;12.90;87.00;;;;;;5053946;28;20516;-58
2022/05/15 05:22:42;;;;;;;17.20;5.63;;;12.90;87.30;;;;;;5053455;28;20563;-59
2022/05/15 05:25:08;;;;;;;13.70;4.75;;;12.90;87.60;;;;;;5055437;28;20111;-59
2022/05/15 05:27:36;;;;;;;19.08;6.90;;;13.00;87.90;;;;;;5054664;28;20017;-59
2022/05/15 05:30:03;;;;;;;16.05;5.20;;;13.00;88.30;;;;;;5053223;28;20031;-59
2022/05/15 05:32:28;;;;;;;15.55;5.50;;;13.00;88.70;;;;;;5057478;28;20028;-59
2022/05/15 05:34:54;;;;;;;15.05;5.50;;;13.10;88.90;;;;;;5058091;28;20029;-59
2022/05/15 05:37:19;;;;;;;16.88;5.13;;;13.10;89.30;;;;;;5054616;28;20033;-59
2022/05/15 05:39:45;;;;;;;12.50;4.68;;;13.10;89.30;;;;;;5066027;28;20028;-57
2022/05/15 05:42:10;;;;;;;24.08;6.72;;;13.20;89.30;;;;;;5063684;28;20032;-58
2022/05/15 05:44:36;;;;;;;15.05;5.82;;;13.20;90.00;;;;;;5061356;28;20052;-58
2022/05/15 05:47:02;;;;;;;19.25;6.15;;;13.30;90.10;;;;;;5055016;28;20032;-58
2022/05/15 05:49:28;;;;;;;15.50;5.55;;;13.30;90.20;;;;;;5065937;28;20388;-58
2022/05/15 05:51:54;;;;;;;18.65;6.75;;;13.40;90.30;;;;;;5064275;28;20041;-57
2022/05/15 05:54:19;;;;;;;17.63;5.55;;;13.40;90.40;;;;;;5061778;28;20128;-58
2022/05/15 05:56:45;;;;;;;20.05;6.15;;;13.50;90.50;;;;;;5061313;28;20041;-58
2022/05/15 05:59:10;;;;;;;15.15;5.07;;;13.50;90.60;;;;;;5062106;28;20082;-57
2022/05/15 06:01:36;;;;;;;12.68;5.15;;;13.50;90.70;;;;;;5060547;28;20077;-58
2022/05/15 06:06:45;;;;;;;17.27;5.60;;;13.60;90.60;;;;;;5058225;28;20040;-58
2022/05/15 06:09:11;;;;;;;23.27;5.88;;;13.70;90.60;;;;;;5056467;28;20239;-58
2022/05/15 06:11:36;;;;;;;20.98;6.65;;;13.80;90.80;;;;;;5052772;28;20079;-58
2022/05/15 06:14:02;;;;;;;18.08;6.22;;;13.80;90.80;;;;;;5058957;28;20036;-58
2022/05/15 06:16:27;;;;;;;13.80;5.68;;;13.90;90.70;;;;;;5049018;28;20037;-58
2022/05/15 06:18:53;;;;;;;18.73;6.47;;;14.00;90.70;;;;;;5034805;28;20553;-58
2022/05/15 06:21:18;;;;;;;17.50;5.85;;;14.00;90.60;;;;;;5044031;28;20028;-58
2022/05/15 06:23:44;;;;;;;15.07;5.88;;;14.10;90.50;;;;;;5050345;28;20029;-58
2022/05/15 06:26:10;;;;;;;18.15;5.80;;;14.10;90.50;;;;;;5057640;28;20473;-58
2022/05/15 06:28:35;;;;;;;16.63;5.45;;;14.20;90.50;;;;;;5041695;28;20029;-58
2022/05/15 06:31:02;;;;;;;18.95;5.35;;;14.30;90.40;;;;;;5052210;28;20032;-58
2022/05/15 06:33:28;;;;;;;21.38;5.82;;;14.30;90.30;;;;;;5057061;28;20079;-58
2022/05/15 06:35:53;;;;;;;17.35;5.50;;;14.40;90.30;;;;;;5053178;28;20508;-57
2022/05/15 06:38:19;;;;;;;15.07;5.72;;;14.50;90.20;;;;;;5056019;28;20115;-58
2022/05/15 06:40:44;;;;;;;16.92;6.05;;;14.50;90.10;;;;;;5049635;28;20397;-58
2022/05/15 06:43:10;;;;;;;16.95;6.50;;;14.60;90.00;;;;;;5054482;28;20045;-58
2022/05/15 06:45:36;;;;;;;14.85;5.63;;;14.70;90.00;;;;;;5043353;28;20052;-58
2022/05/15 06:48:02;;;;;;;14.98;6.15;;;14.70;89.80;;;;;;5054948;28;20029;-58
2022/05/15 06:50:28;;;;;;;16.85;5.68;;;14.80;89.60;;;;;;5055922;28;20492;-58
2022/05/15 06:52:54;;;;;;;18.13;6.43;;;14.90;89.50;;;;;;5048486;28;20064;-58
2022/05/15 06:55:22;;;;;;;14.38;5.55;;;15.00;89.40;;;;;;5048368;28;20025;-58
2022/05/15 06:57:50;;;;;;;17.15;5.75;;;15.10;89.30;;;;;;5048258;28;20041;-58
2022/05/15 07:00:19;;;;;;;11.68;5.15;;;15.10;88.80;;;;;;5043781;28;20029;-58
2022/05/15 07:02:46;;;;;;;;;;;15.20;88.50;;;;;;5045413;28;20032;-59
2022/05/15 07:05:15;;;;;;;13.98;5.45;;;15.30;88.40;;;;;;5044656;28;19912;-58
2022/05/15 07:07:43;;;;;;;15.75;6.00;;;15.30;88.20;;;;;;5047026;28;20028;-59
2022/05/15 07:10:09;;;;;;;17.00;6.15;;;15.40;88.00;;;;;;5038190;28;20057;-59
2022/05/15 07:12:35;;;;;;;11.07;4.47;;;15.50;87.40;;;;;;5050778;28;20477;-59
2022/05/15 07:15:03;;;;;;;14.60;5.07;;;15.60;87.00;;;;;;5046060;28;20036;-58
2022/05/15 07:17:29;;;;;;;14.15;5.43;;;15.70;86.90;;;;;;5047783;28;20033;-58
2022/05/15 07:19:55;;;;;;;15.45;5.22;;;15.80;86.80;;;;;;5047027;28;20087;-59
2022/05/15 07:22:20;;;;;;;18.52;6.70;;;15.90;86.60;;;;;;5047821;28;20025;-59
2022/05/15 07:24:46;;;;;;;15.13;5.88;;;15.90;86.50;;;;;;5043680;28;20104;-59
2022/05/15 07:27:11;;;;;;;13.35;4.97;;;16.10;86.30;;;;;;5047545;28;20023;-58
2022/05/15 07:29:37;;;;;;;13.52;5.57;;;16.10;85.90;;;;;;5046836;28;20523;-58
2022/05/15 07:32:04;;;;;;;18.35;6.15;;;16.20;85.40;;;;;;5054965;28;20476;-59
2022/05/15 07:34:30;;;;;;;11.88;6.00;;;16.30;85.10;;;;;;5046053;28;20580;-59
2022/05/15 07:36:55;;;;;;;13.25;5.13;;;16.40;84.90;;;;;;5048557;28;20115;-59
2022/05/15 07:39:21;;;;;;;17.60;5.50;;;16.50;84.70;;;;;;5051505;28;20029;-59
2022/05/15 07:41:48;;;;;;;14.85;5.28;;;16.50;84.50;;;;;;5048509;28;20087;-58
2022/05/15 07:44:14;;;;;;;12.55;5.60;;;16.60;84.40;;;;;;5043732;28;20013;-58
2022/05/15 07:46:40;;;;;;;12.98;5.53;;;16.70;84.20;;;;;;5042513;28;20071;-59
2022/05/15 07:49:07;;;;;;;12.75;6.25;;;16.80;84.00;;;;;;5048238;28;20032;-59
2022/05/15 07:51:33;;;;;;;10.38;4.47;;;16.90;84.00;;;;;;5047037;28;20079;-58
2022/05/15 07:54:00;;;;;;;14.52;5.75;;;17.00;83.80;;;;;;5051892;28;20501;-59
2022/05/15 07:56:26;;;;;;;14.40;5.32;;;17.10;83.70;;;;;;5043276;28;20035;-59
2022/05/15 07:58:52;;;;;;;17.55;5.95;;;17.20;83.40;;;;;;5044719;28;20033;-58
2022/05/15 08:01:18;;;;;;;17.95;5.80;;;17.30;82.80;;;;;;5055977;28;20472;-59
2022/05/15 08:03:43;;;;;;;11.93;4.68;;;17.40;82.50;;;;;;5037345;28;20116;-58
2022/05/15 08:08:56;;;;;;;12.50;5.40;;;17.60;81.90;;;;;;5043962;28;20036;-59
2022/05/15 08:11:26;;;;;;;11.75;4.85;;;17.70;81.50;;;;;;5040343;28;20492;-58
2022/05/15 08:13:52;;;;;;;16.15;5.38;;;17.80;81.10;;;;;;5046189;28;20044;-58
2022/05/15 08:16:17;;;;;;;13.88;5.38;;;17.90;81.40;;;;;;5049106;28;20031;-59
2022/05/15 08:24:14;;;;;;;16.25;5.25;;;18.30;78.70;;;;;;5045458;28;20107;-58
2022/05/15 08:26:40;;;;;;;13.70;5.15;;;18.50;74.30;;;;;;5044059;28;20508;-59
2022/05/15 08:29:06;;;;;;;8.32;3.10;;;18.60;74.40;;;;;;5045717;28;20466;-59
2022/05/15 08:31:31;;;;;;;11.55;4.60;;;18.70;74.60;;;;;;5043269;28;20037;-59
2022/05/15 08:33:57;;;;;;;12.50;4.45;;;18.80;75.00;;;;;;5046883;28;20104;-59
2022/05/15 08:36:23;;;;;;;8.52;3.22;;;19.00;74.90;;;;;;5048685;28;20021;-58
2022/05/15 08:38:48;;;;;;;10.82;4.10;;;19.10;74.60;;;;;;5051438;28;20392;-59
2022/05/15 08:41:22;;;;;;;9.45;3.55;;;19.20;74.10;;;;;;5046626;28;20100;-59
2022/05/15 08:44:05;;;;;;;9.48;3.45;;;19.30;73.80;;;;;;5047024;28;20023;-58
2022/05/15 08:46:46;;;;;;;11.13;4.25;;;19.40;73.40;;;;;;5044724;28;20916;-59
2022/05/15 08:49:22;;;;;;;13.75;4.57;;;19.50;72.80;;;;;;5041422;28;20404;-58
2022/05/15 08:52:16;;;;;;;10.02;3.97;;;19.70;72.50;;;;;;5043737;28;20040;-59
2022/05/15 08:54:53;;;;;;;13.00;5.82;;;19.70;72.30;;;;;;5046398;28;20032;-59
2022/05/15 08:57:44;;;;;;;12.43;4.07;;;19.90;71.60;;;;;;5048215;28;20033;-59
2022/05/15 09:00:14;;;;;;;10.95;4.63;;;20.00;71.70;;;;;;5049515;28;20033;-59
2022/05/15 09:02:42;;;;;;;13.50;4.22;;;20.00;70.70;;;;;;5049227;28;20048;-59
2022/05/15 09:05:09;;;;;;;7.18;2.95;;;20.10;68.60;;;;;;5056356;28;20485;-59
2022/05/15 09:07:40;;;;;;;12.13;4.50;;;20.30;68.30;;;;;;5045043;28;20096;-59
2022/05/15 09:10:32;;;;;;;11.05;4.47;;;20.40;68.20;;;;;;5047431;28;20025;-59
2022/05/15 09:13:07;;;;;;;13.70;4.53;;;20.50;68.40;;;;;;5053131;28;20021;-59
2022/05/15 09:15:35;;;;;;;8.13;2.95;;;20.60;66.80;;;;;;5039707;28;20028;-59
2022/05/15 09:18:05;;;;;;;10.02;4.28;;;20.70;66.80;;;;;;5046077;28;20021;-59
2022/05/15 09:20:42;;;;;;;;;;;20.70;66.90;;;;;;5053507;28;20083;-59
2022/05/15 09:23:34;;;;;;;11.45;4.53;;;20.80;67.10;;;;;;5053262;28;19963;-59
2022/05/15 09:26:22;;;;;;;11.15;4.72;;;20.90;67.00;;;;;;5067938;28;20380;-59
2022/05/15 09:28:53;;;;;;;11.18;3.88;;;21.00;64.80;;;;;;5074567;28;20104;-59
2022/05/15 09:31:42;;;;;;;10.75;3.47;;;21.00;64.00;;;;;;5074607;28;20020;-59
2022/05/15 09:34:32;;;;;;;10.40;3.95;;;21.10;64.30;;;;;;5049790;28;20025;-59
2022/05/15 09:39:44;;;;;;;11.30;3.30;;;21.40;64.30;;;;;;5044644;28;20688;-59
2022/05/15 09:45:19;;;;;;;12.30;3.92;;;21.50;61.10;;;;;;5034340;28;20092;-59
2022/05/15 09:47:53;;;;;;;10.02;3.08;;;21.60;59.70;;;;;;5047919;28;20104;-58
2022/05/15 09:50:42;;;;;;;9.13;2.85;;;21.70;58.10;;;;;;5049515;28;20535;-60
2022/05/15 09:53:19;;;;;;;9.15;2.80;;;21.80;57.90;;;;;;5051019;28;20040;-58
2022/05/15 09:56:07;;;;;;;10.15;3.65;;;21.80;57.90;;;;;;5049311;28;20025;-59
2022/05/15 09:58:45;;;;;;;10.48;2.72;;;21.90;57.30;;;;;;5063315;28;20388;-58
2022/05/15 10:01:44;;;;;;;9.60;2.63;;;22.10;56.30;;;;;;5052607;28;20118;-59
2022/05/15 10:04:25;;;;;;;7.82;2.08;;;22.10;53.40;;;;;;5050801;28;20074;-59
2022/05/15 10:06:57;;;;;;;9.43;1.75;;;22.20;53.20;;;;;;5047967;28;20025;-59
2022/05/15 10:09:26;;;;;;;9.60;2.47;;;22.20;52.40;;;;;;5047469;28;20021;-59
2022/05/15 10:11:58;;;;;;;6.28;1.88;;;22.30;51.40;;;;;;5050680;28;20079;-59
2022/05/15 10:14:56;;;;;;;13.70;3.42;;;22.40;50.70;;;;;;5046899;28;20455;-59
2022/05/15 10:17:23;;;;;;;8.45;2.47;;;22.50;51.20;;;;;;5037718;28;20551;-59
2022/05/15 10:20:04;;;;;;;10.60;2.50;;;22.60;52.30;;;;;;5042820;28;20036;-60
2022/05/15 10:22:44;;;;;;;6.97;2.20;;;22.70;52.50;;;;;;5041477;28;20025;-60
2022/05/15 10:25:34;;;;;;;8.05;2.30;;;22.90;51.60;;;;;;5048883;28;20052;-60
2022/05/15 10:28:18;;;;;;;;;;;23.10;51.90;;;;;;5050242;28;20075;-60
2022/05/15 10:31:11;;;;;;;9.13;2.88;;;23.10;52.60;;;;;;5048691;28;19905;-59
2022/05/15 10:33:41;;;;;;;7.65;2.10;;;23.20;50.90;;;;;;5048141;28;20041;-59
2022/05/15 10:36:26;;;;;;;8.57;2.13;;;23.20;49.80;;;;;;5048854;28;20013;-59
2022/05/15 10:39:29;;;;;;;6.47;2.15;;;23.30;50.00;;;;;;5045401;28;20013;-58
2022/05/15 10:42:13;;;;;;;5.63;1.80;;;23.50;49.70;;;;;;5051475;28;20021;-59
2022/05/15 10:45:16;;;;;;;8.32;1.88;;;23.60;50.10;;;;;;5051392;28;20075;-59
2022/05/15 10:48:09;;;;;;;6.40;1.67;;;23.70;49.70;;;;;;5046826;28;20092;-59
2022/05/15 10:51:08;;;;;;;8.13;1.75;;;23.80;49.50;;;;;;5041807;28;20049;-59
2022/05/15 10:59:58;;;;;;;10.02;2.30;;;24.00;46.30;;;;;;5033384;28;20032;-59
2022/05/15 11:02:54;;;;;;;7.13;2.55;;;24.00;46.00;;;;;;5032989;28;20040;-59
2022/05/15 11:05:26;;;;;;;12.55;2.15;;;24.10;46.30;;;;;;5033134;28;20161;-59
2022/05/15 11:08:04;;;;;;;5.32;2.00;;;24.20;47.30;;;;;;5041479;28;20053;-59
2022/05/15 11:11:08;;;;;;;5.05;2.08;;;24.40;46.70;;;;;;5050685;28;20029;-59
2022/05/15 11:13:35;;;;;;;8.95;1.75;;;24.60;45.80;;;;;;5035410;28;20498;-59
2022/05/15 11:16:15;;;;;;;3.92;1.42;;;24.60;45.00;;;;;;5048305;28;20029;-58
2022/05/15 11:18:46;;;;;;;5.95;1.80;;;24.80;45.10;;;;;;5039554;28;20385;-59
2022/05/15 11:21:41;;;;;;;4.45;1.98;;;24.90;44.40;;;;;;5042232;28;20056;-59
2022/05/15 11:24:26;;;;;;;6.95;1.50;;;25.10;44.30;;;;;;5046698;28;20026;-59
2022/05/15 11:26:59;;;;;;;5.25;1.40;;;25.30;43.70;;;;;;5042634;28;20017;-59
2022/05/15 11:29:26;;;;;;;7.80;1.80;;;25.50;43.10;;;;;;5049151;28;20501;-59
2022/05/15 11:31:54;;;;;;;3.72;1.40;;;25.50;42.80;;;;;;5050116;28;20029;-59
2022/05/15 11:34:40;;;;;;;8.05;1.98;;;25.60;43.10;;;;;;5047752;28;20033;-59
2022/05/15 11:37:40;;;;;;;6.25;1.80;;;25.80;42.60;;;;;;5052173;28;20040;-59
2022/05/15 11:40:12;;;;;;;5.70;1.67;;;25.90;43.20;;;;;;5052234;28;20081;-59
2022/05/15 11:42:38;;;;;;;8.38;1.73;;;26.00;43.90;;;;;;5052384;28;20033;-59
2022/05/15 11:45:29;;;;;;;6.30;2.08;;;26.30;43.60;;;;;;5051849;28;20044;-59
2022/05/15 11:48:01;;;;;;;6.50;2.20;;;26.50;43.40;;;;;;5050453;28;20407;-59
2022/05/15 11:50:36;;;;;;;6.78;2.03;;;26.70;43.00;;;;;;5050302;28;20036;-59
2022/05/15 11:53:07;;;;;;;6.22;1.60;;;26.80;42.00;;;;;;5050577;28;20059;-59
2022/05/15 11:55:42;;;;;;;8.70;2.00;;;27.00;41.70;;;;;;5048944;28;20059;-59
2022/05/15 11:58:10;;;;;;;5.43;1.77;;;27.20;42.50;;;;;;5049129;28;20064;-59
2022/05/15 12:00:39;;;;;;;6.30;1.85;;;27.30;41.60;;;;;;5046793;28;20021;-59
2022/05/15 12:03:49;;;;;;;5.70;1.80;;;27.40;41.30;;;;;;5047963;28;20461;-59
2022/05/15 12:06:18;;;;;;;6.22;1.30;;;27.60;41.00;;;;;;5047707;28;20542;-59
2022/05/15 12:08:48;;;;;;;6.07;2.00;;;27.70;40.40;;;;;;5044885;28;20022;-60
2022/05/15 12:11:28;;;;;;;5.25;1.55;;;27.80;39.50;;;;;;5046901;28;20448;-60
2022/05/15 12:13:55;;;;;;;5.97;2.13;;;28.00;38.70;;;;;;5047456;28;20021;-60
2022/05/15 12:16:33;;;;;;;9.27;2.00;;;28.10;38.90;;;;;;5051282;28;20075;-60
2022/05/15 12:19:00;;;;;;;8.33;1.23;;;28.30;38.80;;;;;;5051873;28;20021;-61
2022/05/15 12:21:51;;;;;;;4.97;1.65;;;28.50;39.30;;;;;;5050575;28;20028;-61
2022/05/15 12:24:29;;;;;;;7.18;1.60;;;28.60;39.00;;;;;;5049338;28;20033;-61
2022/05/15 12:27:16;;;;;;;3.47;1.25;;;28.60;37.80;;;;;;5050541;28;20071;-60
2022/05/15 12:30:14;;;;;;;5.93;1.67;;;28.60;38.40;;;;;;5054127;28;20106;-60
2022/05/15 12:32:50;;;;;;;6.03;1.70;;;28.80;37.90;;;;;;5052673;28;20086;-60
2022/05/15 12:35:34;;;;;;;7.18;1.52;;;29.00;36.90;;;;;;5055691;28;20058;-61
2022/05/15 12:38:13;;;;;;;5.10;1.25;;;29.20;36.80;;;;;;5055549;28;20433;-60
2022/05/15 12:40:57;;;;;;;7.05;1.60;;;29.20;34.40;;;;;;5053151;28;20063;-61
2022/05/15 12:43:31;;;;;;;9.52;1.70;;;28.90;34.90;;;;;;5050419;28;20029;-61
2022/05/15 12:45:58;;;;;;;3.58;1.30;;;28.40;35.70;;;;;;5055372;28;20064;-60
2022/05/15 12:48:25;;;;;;;5.68;1.58;;;28.10;36.30;;;;;;5055516;28;20017;-60
2022/05/15 12:51:03;;;;;;;2.92;0.90;;;28.00;37.70;;;;;;5054978;28;20053;-61
2022/05/15 12:53:31;;;;;;;5.63;2.33;;;28.30;38.00;;;;;;5055677;28;20029;-61
2022/05/15 12:56:17;;;;;;;4.80;1.87;;;28.40;37.30;;;;;;5045524;28;20549;-60
2022/05/15 12:58:49;;;;;;;4.22;1.55;;;28.30;35.70;;;;;;5053223;28;20060;-61
2022/05/15 13:01:15;;;;;;;4.93;1.70;;;28.30;36.30;;;;;;5055322;28;20112;-61
2022/05/15 13:03:48;;;;;;;6.50;1.40;;;28.60;36.10;;;;;;5050142;28;20025;-61
2022/05/15 13:06:18;;;;;;;2.55;0.95;;;28.50;36.20;;;;;;5041657;28;20036;-61
2022/05/15 13:08:54;;;;;;;3.40;1.05;;;28.80;36.40;;;;;;5047157;28;20098;-61
2022/05/15 13:11:36;;;;;;;5.63;1.10;;;29.20;35.20;;;;;;5048655;28;20551;-61
2022/05/15 13:14:01;;;;;;;3.35;0.90;;;29.50;34.60;;;;;;5054742;28;20029;-61
2022/05/15 13:16:28;;;;;;;4.68;1.20;;;29.60;35.00;;;;;;5055014;28;20079;-61
2022/05/15 13:18:55;;;;;;;7.43;1.92;;;29.80;34.70;;;;;;5050008;28;20128;-61
2022/05/15 13:21:40;;;;;;;4.60;1.23;;;30.10;34.20;;;;;;5045941;28;20021;-61